Terminal Aerodrome Forecast
Issued by NWS Riverton, WY

Home | Current Version | Previous Version | Text Only | Print | Product List | Glossary On
Versions: 1 2 3 4 5 6 7 8 9 10 11 12
000
FTUS45 KRIW 271130
TAFRIW
TAF
KRIW 271130Z 2712/2812 03005KT P6SM SKC
     FM272200 03009KT P6SM FEW120
     FM280200 03013KT P6SM SCT120
     FM280700 33007KT P6SM FEW120=

USA.gov is the U.S. government's official web portal to all federal, state and local government web resources and services.